Argusville, North Dakota
Current Conditions -  °F | °C
As of 2:53 AM on Thursday 27 Nov 2014 (Local Time) from KFAR Reporting Station
Clear Clear  
Wind Chill: -9°   Ceiling: Unl
Heat Index: -9°   Visibility: 10mi
Dew Point: -17°   Wind: 0mph
Humidity: 68%   Direction: NA
Pressure: 30.56"   Gusts: NA
Location:  47.05°N, 96.93°W
Report Text: KFAR 270853Z 00000KT 10SM CLR M23/M27 A3056 RMK AO2 SLP378 I3000 T12281272 56005
Loading
Personal Weather Stations






























Interactive Weather Map New forecast layout! Learn more

10-Day Weather Forecast

Advertisements
Track Severe Weather on mobile